Time;durP1;ratioP1;P1;durP2;ratioP2;P2;SDS_P1;SDS_P2;PMS_P1;PMS_P2;Temp;Humidity;BMP_temperature;BMP_pressure;BME280_temperature;BME280_humidity;BME280_pressure;Samples;Min_cycle;Max_cycle;Signal;HPM_P1;HPM_P2
2024/03/14 00:02:18;;;;;;;5.72;3.63;;;10.10;99.90;;;;;;5014114;28;20034;-73
2024/03/14 00:04:44;;;;;;;5.65;3.05;;;10.10;99.90;;;;;;5011005;28;20049;-73
2024/03/14 00:07:10;;;;;;;7.75;3.78;;;10.10;99.90;;;;;;5016394;28;20045;-72
2024/03/14 00:09:35;;;;;;;8.10;3.95;;;10.10;99.90;;;;;;5012368;28;20029;-71
2024/03/14 00:12:01;;;;;;;8.63;3.65;;;10.10;99.90;;;;;;5015304;28;20041;-71
2024/03/14 00:14:27;;;;;;;9.27;3.30;;;10.10;99.90;;;;;;4992365;28;20044;-71
2024/03/14 00:16:53;;;;;;;8.23;3.67;;;10.20;99.90;;;;;;5013678;28;20034;-72
2024/03/14 00:19:19;;;;;;;5.30;3.20;;;10.20;99.90;;;;;;5014387;28;20072;-72
2024/03/14 00:21:48;;;;;;;7.65;3.50;;;10.20;99.90;;;;;;5013647;28;20034;-71
2024/03/14 00:24:14;;;;;;;4.95;3.08;;;10.20;99.90;;;;;;5007737;28;20495;-71
2024/03/14 00:26:40;;;;;;;5.88;3.80;;;10.30;99.90;;;;;;5013804;28;20042;-73
2024/03/14 00:29:05;;;;;;;7.30;3.50;;;10.30;99.90;;;;;;4992983;28;20112;-71
2024/03/14 00:31:41;;;;;;;10.40;3.63;;;10.20;99.90;;;;;;5007368;28;20160;-72
2024/03/14 00:34:07;;;;;;;6.32;3.80;;;10.20;99.90;;;;;;4991026;28;20049;-71
2024/03/14 00:36:38;;;;;;;6.30;3.08;;;10.20;99.90;;;;;;5011332;28;20083;-72
2024/03/14 00:39:06;;;;;;;5.95;3.00;;;10.20;99.90;;;;;;5014015;28;20040;-72
2024/03/14 00:41:33;;;;;;;6.40;3.22;;;10.20;99.90;;;;;;4994304;28;20056;-72
2024/03/14 00:43:59;;;;;;;6.43;3.35;;;10.20;99.90;;;;;;5010848;28;20026;-71
2024/03/14 00:46:25;;;;;;;9.80;3.38;;;10.20;99.90;;;;;;5014488;28;20113;-72
2024/03/14 00:48:52;;;;;;;7.57;3.47;;;10.10;99.90;;;;;;5014060;28;20611;-71
2024/03/14 00:51:17;;;;;;;6.10;3.58;;;10.20;99.90;;;;;;4996292;28;20041;-70
2024/03/14 00:53:43;;;;;;;5.30;3.38;;;10.10;99.90;;;;;;5014050;28;20046;-71
2024/03/14 00:56:11;;;;;;;7.63;3.45;;;10.20;99.90;;;;;;5015723;28;20030;-73
2024/03/14 00:58:37;;;;;;;8.15;3.55;;;10.10;99.90;;;;;;5011316;28;20072;-73
2024/03/14 01:01:03;;;;;;;7.68;3.55;;;10.10;99.90;;;;;;5016653;28;20022;-72
2024/03/14 01:03:32;;;;;;;5.63;3.38;;;10.10;99.90;;;;;;4994630;28;20041;-72
2024/03/14 01:05:58;;;;;;;6.45;3.65;;;10.10;99.90;;;;;;5008984;28;20084;-72
2024/03/14 01:08:24;;;;;;;5.22;2.88;;;10.10;99.90;;;;;;5012813;28;20566;-72
2024/03/14 01:10:49;;;;;;;5.35;3.00;;;10.10;99.90;;;;;;5017832;28;20561;-72
2024/03/14 01:13:15;;;;;;;6.82;3.67;;;10.00;99.90;;;;;;5013121;28;20089;-72
2024/03/14 01:15:41;;;;;;;5.65;2.97;;;10.00;99.90;;;;;;4998164;28;20046;-72
2024/03/14 01:18:06;;;;;;;5.80;2.72;;;10.00;99.90;;;;;;4998591;28;20502;-71
2024/03/14 01:20:32;;;;;;;6.40;2.88;;;9.90;99.90;;;;;;5012765;28;20495;-71
2024/03/14 01:22:57;;;;;;;7.15;3.20;;;10.00;99.90;;;;;;5017077;28;20040;-72
2024/03/14 01:25:24;;;;;;;7.15;3.22;;;9.90;99.90;;;;;;5001368;28;20030;-72
2024/03/14 01:27:50;;;;;;;6.20;3.00;;;9.90;99.90;;;;;;5001527;28;20046;-72
2024/03/14 01:30:16;;;;;;;5.95;3.17;;;9.90;99.90;;;;;;5000135;28;20168;-73
2024/03/14 01:32:41;;;;;;;6.90;3.10;;;9.90;99.90;;;;;;4998295;28;20478;-71
2024/03/14 01:35:08;;;;;;;6.50;3.03;;;9.90;99.90;;;;;;4999135;28;20045;-71
2024/03/14 01:37:34;;;;;;;4.93;2.80;;;9.90;99.90;;;;;;5018745;28;20045;-70
2024/03/14 01:40:01;;;;;;;6.15;2.80;;;9.90;99.90;;;;;;5000106;28;20045;-71
2024/03/14 01:42:28;;;;;;;5.07;3.03;;;9.90;99.90;;;;;;4995812;28;20034;-72
2024/03/14 01:45:04;;;;;;;6.68;3.10;;;9.90;99.90;;;;;;5014505;28;20033;-70
2024/03/14 01:47:30;;;;;;;6.63;2.95;;;9.80;99.90;;;;;;5011959;28;20104;-73
2024/03/14 01:49:56;;;;;;;5.47;2.92;;;9.80;99.90;;;;;;5017180;28;20495;-71
2024/03/14 01:52:22;;;;;;;4.05;2.30;;;9.80;99.90;;;;;;5014361;28;20419;-71
2024/03/14 01:54:50;;;;;;;5.85;2.33;;;9.80;99.90;;;;;;5012232;28;20499;-72
2024/03/14 01:57:17;;;;;;;3.78;2.35;;;9.80;99.90;;;;;;5017075;28;20034;-71
2024/03/14 01:59:43;;;;;;;5.60;2.85;;;9.80;99.90;;;;;;5015908;28;20100;-71
2024/03/14 02:02:08;;;;;;;4.85;2.55;;;9.80;99.90;;;;;;5006789;28;20038;-72
2024/03/14 02:04:44;;;;;;;5.28;2.40;;;9.80;99.90;;;;;;5008059;28;20550;-71
2024/03/14 02:07:13;;;;;;;4.22;2.25;;;9.80;99.90;;;;;;4993860;28;20145;-72
2024/03/14 02:09:40;;;;;;;4.13;2.27;;;9.70;99.90;;;;;;4992735;28;20582;-72
2024/03/14 02:12:07;;;;;;;4.22;2.53;;;9.70;99.90;;;;;;5012169;28;20041;-71
2024/03/14 02:14:33;;;;;;;6.50;2.45;;;9.70;99.90;;;;;;5011991;28;20032;-72
2024/03/14 02:16:59;;;;;;;4.13;2.38;;;9.70;99.90;;;;;;5003847;28;20034;-72
2024/03/14 02:19:25;;;;;;;4.75;2.40;;;9.70;99.90;;;;;;5011591;28;20409;-71
2024/03/14 02:21:50;;;;;;;7.35;2.75;;;9.60;99.90;;;;;;4986089;28;20029;-71
2024/03/14 02:24:19;;;;;;;3.92;2.10;;;9.60;99.90;;;;;;5011115;28;20034;-71
2024/03/14 02:26:45;;;;;;;5.47;2.17;;;9.60;99.90;;;;;;4994563;28;20043;-72
2024/03/14 02:29:10;;;;;;;6.75;2.60;;;9.60;99.90;;;;;;4992625;28;20057;-72
2024/03/14 02:31:37;;;;;;;4.10;2.28;;;9.60;99.90;;;;;;4987741;28;20040;-72
2024/03/14 02:34:06;;;;;;;4.70;2.08;;;9.60;99.90;;;;;;5005483;28;20034;-71
2024/03/14 02:36:32;;;;;;;5.25;2.72;;;9.60;99.90;;;;;;5011458;28;20090;-71
2024/03/14 02:38:58;;;;;;;6.78;3.15;;;9.50;99.90;;;;;;5010158;28;20084;-72
2024/03/14 02:41:24;;;;;;;5.38;2.42;;;9.50;99.90;;;;;;4999275;28;20033;-70
2024/03/14 02:43:53;;;;;;;4.13;1.88;;;9.50;99.90;;;;;;5008551;28;20062;-72
2024/03/14 02:46:19;;;;;;;4.07;2.30;;;9.50;99.90;;;;;;5011187;28;20498;-70
2024/03/14 02:48:44;;;;;;;8.05;2.72;;;9.50;99.90;;;;;;4991644;28;20073;-71
2024/03/14 02:51:11;;;;;;;4.55;2.78;;;9.50;99.90;;;;;;4984926;28;20144;-72
2024/03/14 02:53:36;;;;;;;7.72;2.92;;;9.40;99.90;;;;;;5010119;28;20041;-73
2024/03/14 02:56:03;;;;;;;4.30;2.35;;;9.50;99.90;;;;;;5003090;28;20080;-71
2024/03/14 02:58:28;;;;;;;9.07;2.30;;;9.40;99.90;;;;;;5010613;28;20034;-72
2024/03/14 03:00:54;;;;;;;3.65;2.25;;;9.30;99.90;;;;;;5011072;28;20030;-70
2024/03/14 03:03:20;;;;;;;4.63;2.30;;;9.30;99.90;;;;;;5011398;28;20030;-70
2024/03/14 03:05:48;;;;;;;4.82;2.42;;;9.30;99.90;;;;;;5007745;28;20045;-71
2024/03/14 03:08:15;;;;;;;6.95;2.60;;;9.30;99.90;;;;;;5014064;28;20080;-70
2024/03/14 03:10:41;;;;;;;5.30;2.50;;;9.30;99.90;;;;;;5007349;28;20706;-71
2024/03/14 03:13:06;;;;;;;6.53;2.72;;;9.20;99.90;;;;;;5010550;28;20076;-72
2024/03/14 03:15:32;;;;;;;4.97;2.63;;;9.20;99.90;;;;;;5004329;28;20049;-72
2024/03/14 03:17:58;;;;;;;5.03;2.70;;;9.30;99.90;;;;;;5004853;28;20039;-72
2024/03/14 03:20:24;;;;;;;3.67;2.42;;;9.20;99.90;;;;;;5011791;28;20146;-72
2024/03/14 03:25:47;;;;;;;5.30;2.88;;;9.20;99.90;;;;;;4953337;28;20084;-71
2024/03/14 03:28:13;;;;;;;6.60;2.72;;;9.20;99.90;;;;;;5000632;28;20026;-72
2024/03/14 03:30:45;;;;;;;7.15;2.83;;;9.20;99.90;;;;;;5014118;28;20491;-72
2024/03/14 03:33:16;;;;;;;5.88;3.35;;;9.10;99.90;;;;;;5010772;28;20144;-72
2024/03/14 03:35:43;;;;;;;5.68;3.35;;;9.10;99.90;;;;;;5013927;28;20671;-72
2024/03/14 03:38:09;;;;;;;6.30;3.10;;;9.10;99.90;;;;;;5012403;28;20038;-72
2024/03/14 03:40:39;;;;;;;6.15;3.20;;;9.10;99.90;;;;;;4999749;28;20041;-72
2024/03/14 03:43:05;;;;;;;7.80;3.63;;;9.10;99.90;;;;;;5013540;28;20038;-71
2024/03/14 03:45:31;;;;;;;8.85;3.42;;;9.10;99.90;;;;;;5021404;28;20063;-73
2024/03/14 03:47:57;;;;;;;8.77;3.08;;;9.10;99.90;;;;;;5023139;28;20029;-71
2024/03/14 03:50:26;;;;;;;5.78;3.35;;;9.10;99.90;;;;;;5017856;28;20082;-71
2024/03/14 03:52:52;;;;;;;7.22;3.40;;;9.00;99.90;;;;;;4993903;28;20051;-71
2024/03/14 03:55:18;;;;;;;5.55;3.42;;;9.00;99.90;;;;;;5013158;28;20082;-72
2024/03/14 03:57:44;;;;;;;7.20;3.42;;;8.90;99.90;;;;;;5014669;28;20037;-71
2024/03/14 04:02:54;;;;;;;8.88;4.25;;;8.90;99.90;;;;;;5009645;28;20049;-71
2024/03/14 04:05:20;;;;;;;8.85;3.70;;;8.90;99.90;;;;;;4999651;28;20094;-72
2024/03/14 04:07:49;;;;;;;7.07;3.63;;;8.90;99.90;;;;;;5009825;28;20038;-72
2024/03/14 04:10:15;;;;;;;10.90;4.60;;;8.90;99.90;;;;;;5017235;28;20118;-71
2024/03/14 04:12:40;;;;;;;8.77;3.83;;;9.00;99.90;;;;;;5014755;28;20501;-71
2024/03/14 04:15:06;;;;;;;6.30;3.08;;;8.90;99.90;;;;;;5010905;28;20042;-72
2024/03/14 04:17:33;;;;;;;6.18;3.53;;;8.90;99.90;;;;;;5013583;28;20576;-71
2024/03/14 04:20:03;;;;;;;7.65;3.63;;;8.80;99.90;;;;;;5010668;28;20526;-72
2024/03/14 04:22:28;;;;;;;8.30;2.95;;;8.80;99.90;;;;;;4998426;28;20065;-71
2024/03/14 04:24:54;;;;;;;11.75;4.75;;;8.80;99.90;;;;;;5015932;28;20066;-71
2024/03/14 04:27:21;;;;;;;7.82;4.20;;;8.70;99.90;;;;;;5013681;28;20081;-72
2024/03/14 04:29:47;;;;;;;6.30;3.63;;;8.70;99.90;;;;;;5010930;28;20045;-71
2024/03/14 04:32:13;;;;;;;9.63;4.43;;;8.70;99.90;;;;;;5015501;28;20148;-72
2024/03/14 04:34:42;;;;;;;9.30;3.92;;;8.70;99.90;;;;;;5023096;28;20169;-73
2024/03/14 04:37:08;;;;;;;10.23;4.80;;;8.70;99.90;;;;;;4997267;28;20046;-72
2024/03/14 04:39:34;;;;;;;11.52;4.85;;;8.70;99.90;;;;;;5013055;28;20045;-70
2024/03/14 04:42:00;;;;;;;11.38;5.03;;;8.70;99.90;;;;;;4997912;28;20560;-70
2024/03/14 04:44:26;;;;;;;10.35;5.00;;;8.70;99.90;;;;;;4998095;28;20049;-73
2024/03/14 04:46:54;;;;;;;10.30;5.20;;;8.60;99.90;;;;;;5012614;28;20038;-70
2024/03/14 04:49:23;;;;;;;11.40;5.65;;;8.60;99.90;;;;;;4997109;28;20054;-72
2024/03/14 04:51:48;;;;;;;10.38;4.97;;;8.50;99.90;;;;;;5004000;28;20041;-71
2024/03/14 04:54:14;;;;;;;10.45;5.10;;;8.50;99.90;;;;;;5017585;28;20049;-71
2024/03/14 04:56:40;;;;;;;8.23;4.63;;;8.50;99.90;;;;;;4992474;28;20045;-71
2024/03/14 04:59:08;;;;;;;9.32;5.13;;;8.50;99.90;;;;;;5013859;28;21205;-70
2024/03/14 05:01:34;;;;;;;9.77;5.20;;;8.50;99.90;;;;;;5014815;28;20037;-69
2024/03/14 05:03:59;;;;;;;16.52;7.20;;;8.50;99.90;;;;;;5017006;28;20087;-72
2024/03/14 05:06:27;;;;;;;9.45;5.05;;;8.50;99.90;;;;;;5012852;28;20033;-71
2024/03/14 05:08:54;;;;;;;10.00;4.85;;;8.50;99.90;;;;;;5014495;28;20034;-72
2024/03/14 05:11:21;;;;;;;10.32;5.68;;;8.50;99.90;;;;;;5018916;28;20038;-71
2024/03/14 05:13:49;;;;;;;9.10;4.55;;;8.50;99.90;;;;;;4997595;28;20041;-72
2024/03/14 05:16:16;;;;;;;10.77;5.93;;;8.50;99.90;;;;;;5007320;28;20065;-71
2024/03/14 05:18:42;;;;;;;11.10;5.95;;;8.50;99.90;;;;;;5025364;28;20042;-71
2024/03/14 05:21:10;;;;;;;13.45;5.53;;;8.50;99.90;;;;;;5015276;28;20415;-72
2024/03/14 05:23:36;;;;;;;16.08;6.80;;;8.40;99.90;;;;;;5010513;28;20030;-70
2024/03/14 05:26:04;;;;;;;11.55;5.53;;;8.50;99.90;;;;;;5009442;28;20442;-70
2024/03/14 05:28:30;;;;;;;11.32;5.22;;;8.50;99.90;;;;;;5014994;28;20026;-72
2024/03/14 05:30:56;;;;;;;12.43;5.55;;;8.50;99.90;;;;;;5014127;28;20052;-69
2024/03/14 05:33:21;;;;;;;13.73;6.13;;;8.40;99.90;;;;;;4993859;28;20030;-70
2024/03/14 05:35:47;;;;;;;12.90;5.88;;;8.40;99.90;;;;;;5005601;28;20462;-70
2024/03/14 05:38:13;;;;;;;12.80;6.30;;;8.40;99.90;;;;;;5010208;28;20034;-72
2024/03/14 05:40:38;;;;;;;12.55;5.97;;;8.40;99.90;;;;;;5012403;28;20037;-73
2024/03/14 05:43:04;;;;;;;12.65;6.35;;;8.40;99.90;;;;;;4990382;28;20057;-71
2024/03/14 05:45:34;;;;;;;12.70;6.63;;;8.40;99.90;;;;;;4990544;28;20104;-70
2024/03/14 05:48:11;;;;;;;8.70;4.50;;;8.40;99.90;;;;;;5008053;28;20045;-71
2024/03/14 05:50:36;;;;;;;12.48;5.75;;;8.40;99.90;;;;;;5008650;28;20053;-72
2024/03/14 05:53:02;;;;;;;11.05;5.63;;;8.40;99.90;;;;;;5006163;28;20034;-70
2024/03/14 05:55:29;;;;;;;14.00;5.90;;;8.40;99.90;;;;;;5005963;28;20050;-72
2024/03/14 05:57:55;;;;;;;12.52;6.30;;;8.30;99.90;;;;;;4996327;28;20046;-70
2024/03/14 06:00:21;;;;;;;12.45;6.28;;;8.30;99.90;;;;;;5005861;28;20119;-69
2024/03/14 06:02:47;;;;;;;11.05;5.75;;;8.30;99.90;;;;;;5006160;28;20112;-71
2024/03/14 06:05:14;;;;;;;13.63;5.97;;;8.30;99.90;;;;;;5004627;28;20097;-71
2024/03/14 06:07:40;;;;;;;16.85;6.10;;;8.30;99.90;;;;;;4998152;28;20464;-72
2024/03/14 06:10:07;;;;;;;13.77;6.50;;;8.30;99.90;;;;;;5003339;28;20067;-71
2024/03/14 06:12:33;;;;;;;13.13;6.03;;;8.30;99.90;;;;;;5005497;28;20052;-71
2024/03/14 06:14:58;;;;;;;12.65;5.93;;;8.30;99.90;;;;;;4990836;28;20108;-72
2024/03/14 06:17:25;;;;;;;11.93;5.82;;;8.30;99.90;;;;;;5001651;28;20041;-72
2024/03/14 06:19:51;;;;;;;11.75;6.32;;;8.30;99.90;;;;;;5004286;28;20049;-72
2024/03/14 06:22:16;;;;;;;15.45;7.18;;;8.40;99.90;;;;;;4986710;28;20072;-72
2024/03/14 06:24:43;;;;;;;17.58;5.38;;;8.30;99.90;;;;;;5004014;28;20074;-72
2024/03/14 06:27:12;;;;;;;10.85;5.90;;;8.40;99.90;;;;;;4999421;28;20034;-71
2024/03/14 06:29:38;;;;;;;12.65;6.05;;;8.40;99.90;;;;;;5003687;28;20034;-71
2024/03/14 06:32:04;;;;;;;13.63;6.20;;;8.40;99.90;;;;;;4980376;28;20046;-71
2024/03/14 06:34:30;;;;;;;11.77;5.32;;;8.40;99.90;;;;;;5000505;28;20112;-71
2024/03/14 06:36:57;;;;;;;13.02;5.35;;;8.40;99.90;;;;;;5007414;28;20507;-70
2024/03/14 06:39:25;;;;;;;11.80;5.45;;;8.50;99.90;;;;;;4989295;28;20038;-72
2024/03/14 06:41:54;;;;;;;13.18;5.13;;;8.50;99.90;;;;;;5003296;28;20034;-70
2024/03/14 06:44:21;;;;;;;10.82;5.47;;;8.50;99.90;;;;;;4985581;28;20042;-72
2024/03/14 06:46:48;;;;;;;15.15;5.88;;;8.60;99.90;;;;;;5005695;28;20043;-72
2024/03/14 06:49:13;;;;;;;14.65;6.10;;;8.60;99.90;;;;;;5004455;28;20034;-71
2024/03/14 06:51:41;;;;;;;13.85;5.50;;;8.70;99.90;;;;;;5005397;28;20034;-71
2024/03/14 06:54:07;;;;;;;14.23;6.05;;;8.70;99.90;;;;;;5007613;28;20477;-73
2024/03/14 06:56:35;;;;;;;12.68;5.55;;;8.70;99.90;;;;;;4997929;28;20514;-72
2024/03/14 06:59:05;;;;;;;13.27;5.38;;;8.70;99.90;;;;;;5002102;28;20561;-70
2024/03/14 07:01:31;;;;;;;10.82;5.00;;;8.70;99.90;;;;;;5007779;28;20116;-71
2024/03/14 07:04:01;;;;;;;17.17;6.65;;;8.80;99.90;;;;;;5006382;28;20038;-73
2024/03/14 07:06:26;;;;;;;9.77;5.30;;;8.80;99.90;;;;;;5012597;28;20026;-70
2024/03/14 07:09:00;;;;;;;14.80;5.60;;;8.90;99.90;;;;;;5011551;28;20287;-72
2024/03/14 07:11:26;;;;;;;10.90;4.78;;;8.90;99.90;;;;;;5007498;28;20504;-72
2024/03/14 07:13:59;;;;;;;11.43;5.07;;;9.00;99.90;;;;;;5008433;28;20026;-70
2024/03/14 07:16:25;;;;;;;8.93;4.63;;;9.00;99.90;;;;;;5009359;28;20819;-71
2024/03/14 07:18:55;;;;;;;11.90;5.78;;;9.20;99.90;;;;;;5003923;28;20042;-72
2024/03/14 07:21:24;;;;;;;9.97;5.20;;;9.30;99.90;;;;;;5002385;28;20030;-72
2024/03/14 07:23:50;;;;;;;12.35;5.13;;;9.40;99.90;;;;;;4987992;28;20418;-70
2024/03/14 07:26:22;;;;;;;9.88;5.57;;;9.50;99.90;;;;;;5013150;28;20032;-72
2024/03/14 07:28:53;;;;;;;8.25;4.43;;;9.60;99.90;;;;;;5005240;28;20800;-72
2024/03/14 07:31:22;;;;;;;7.32;4.18;;;9.70;99.90;;;;;;5006773;28;20713;-73
2024/03/14 07:33:48;;;;;;;9.95;3.85;;;9.90;99.90;;;;;;5009099;28;20062;-71
2024/03/14 07:36:17;;;;;;;9.05;4.38;;;10.00;99.90;;;;;;4991217;28;20029;-71
2024/03/14 07:38:44;;;;;;;8.55;4.07;;;10.20;99.90;;;;;;5007852;28;20517;-73
2024/03/14 07:41:11;;;;;;;6.40;3.53;;;10.40;99.90;;;;;;5005969;28;20038;-72
2024/03/14 07:43:38;;;;;;;6.20;3.50;;;10.50;99.90;;;;;;5007753;28;20026;-71
2024/03/14 07:46:04;;;;;;;6.70;3.40;;;10.50;99.90;;;;;;5004508;28;20033;-72
2024/03/14 07:48:30;;;;;;;5.57;3.10;;;10.60;99.90;;;;;;4991199;28;20040;-72
2024/03/14 07:50:58;;;;;;;5.63;3.35;;;10.70;99.90;;;;;;5009206;28;20482;-69
2024/03/14 07:53:25;;;;;;;5.90;3.30;;;10.80;99.90;;;;;;5011749;28;20030;-72
2024/03/14 07:55:51;;;;;;;6.30;3.35;;;10.90;99.90;;;;;;5003373;28;20068;-72
2024/03/14 07:58:17;;;;;;;6.88;2.85;;;11.10;99.90;;;;;;4988838;28;20057;-69
2024/03/14 08:00:42;;;;;;;6.05;3.00;;;11.30;99.90;;;;;;5005873;28;20043;-72
2024/03/14 08:03:08;;;;;;;7.97;3.17;;;11.50;99.90;;;;;;4987383;28;20130;-72
2024/03/14 08:05:34;;;;;;;11.48;2.85;;;11.80;99.90;;;;;;5008189;28;20388;-70
2024/03/14 08:08:02;;;;;;;5.45;3.30;;;12.00;99.90;;;;;;5004620;28;20540;-72
2024/03/14 08:10:28;;;;;;;5.38;2.33;;;12.20;99.90;;;;;;5009774;28;20044;-72
2024/03/14 08:12:57;;;;;;;6.72;2.60;;;12.20;99.90;;;;;;5006357;28;20438;-72
2024/03/14 08:15:35;;;;;;;7.25;3.15;;;12.20;99.90;;;;;;4992254;28;20534;-70
2024/03/14 08:18:07;;;;;;;3.92;2.20;;;12.20;99.90;;;;;;5007141;28;20479;-72
2024/03/14 08:20:36;;;;;;;4.85;2.47;;;12.20;99.90;;;;;;4990473;28;20034;-72
2024/03/14 08:23:04;;;;;;;4.13;2.40;;;12.20;99.90;;;;;;5012661;28;20037;-70
2024/03/14 08:25:36;;;;;;;4.78;2.08;;;12.20;99.90;;;;;;5010072;28;21082;-71
2024/03/14 08:28:06;;;;;;;5.28;2.72;;;12.20;99.90;;;;;;5007255;28;20037;-72
2024/03/14 08:30:32;;;;;;;4.57;2.73;;;12.20;99.90;;;;;;5007041;28;20034;-71
2024/03/14 08:32:58;;;;;;;4.97;1.92;;;12.20;99.90;;;;;;4990663;28;20797;-72
2024/03/14 08:35:23;;;;;;;3.75;2.22;;;12.20;99.90;;;;;;5006526;28;20042;-70
2024/03/14 08:37:49;;;;;;;4.22;2.33;;;12.40;99.90;;;;;;4987263;28;20046;-72
2024/03/14 08:40:15;;;;;;;7.90;2.45;;;12.40;99.90;;;;;;5001251;28;20874;-71
2024/03/14 08:42:41;;;;;;;3.95;2.03;;;12.60;99.90;;;;;;4984826;28;20157;-72
2024/03/14 08:45:09;;;;;;;4.65;2.28;;;12.60;99.90;;;;;;5003968;28;20048;-72
2024/03/14 08:47:35;;;;;;;6.75;2.20;;;12.70;99.90;;;;;;5003870;28;20156;-72
2024/03/14 08:50:04;;;;;;;4.63;2.33;;;12.70;99.90;;;;;;4984427;28;20640;-73
2024/03/14 08:52:29;;;;;;;3.50;2.13;;;12.80;99.90;;;;;;4997628;28;20038;-71
2024/03/14 08:54:55;;;;;;;5.30;2.47;;;12.90;99.90;;;;;;4986779;28;20038;-72
2024/03/14 08:57:25;;;;;;;5.07;2.47;;;12.90;99.90;;;;;;5005422;28;20049;-71
2024/03/14 08:59:51;;;;;;;;;;;13.00;99.90;;;;;;5001757;28;20495;-71
2024/03/14 09:02:22;;;;;;;3.83;1.55;;;13.10;99.90;;;;;;5004416;28;19967;-72
2024/03/14 09:04:47;;;;;;;;;;;13.10;99.90;;;;;;4985770;28;20038;-72
2024/03/14 09:07:16;;;;;;;4.05;2.05;;;13.20;99.90;;;;;;5003410;28;19967;-72
2024/03/14 09:09:44;;;;;;;3.83;2.17;;;13.30;99.90;;;;;;4984836;28;20122;-72
2024/03/14 09:12:13;;;;;;;5.43;2.08;;;13.40;99.90;;;;;;5008076;28;20096;-72
2024/03/14 09:14:41;;;;;;;3.58;1.67;;;13.50;99.90;;;;;;4980582;28;20033;-72
2024/03/14 09:17:07;;;;;;;4.20;1.75;;;13.60;99.90;;;;;;5009808;28;20114;-72
2024/03/14 09:19:32;;;;;;;2.80;1.48;;;13.60;99.90;;;;;;5012256;28;20035;-70
2024/03/14 09:21:58;;;;;;;3.53;1.73;;;13.70;99.90;;;;;;5013458;28;20042;-72
2024/03/14 09:24:24;;;;;;;4.38;2.38;;;13.90;99.90;;;;;;5003804;28;20137;-72
2024/03/14 09:26:49;;;;;;;6.25;1.75;;;13.90;99.90;;;;;;5001284;28;20037;-72
2024/03/14 09:29:15;;;;;;;5.72;1.95;;;14.00;99.90;;;;;;4987801;28;20113;-72
2024/03/14 09:31:44;;;;;;;2.60;1.83;;;14.10;99.90;;;;;;4998160;28;20045;-72
2024/03/14 09:34:11;;;;;;;3.05;1.80;;;14.10;99.90;;;;;;5003925;28;20033;-72
2024/03/14 09:36:37;;;;;;;5.32;2.15;;;14.30;99.90;;;;;;5002775;28;20630;-73
2024/03/14 09:39:13;;;;;;;3.28;1.30;;;14.40;99.90;;;;;;4988293;28;20076;-72
2024/03/14 09:41:41;;;;;;;3.22;1.65;;;14.40;99.90;;;;;;5005305;28;20518;-72
2024/03/14 09:44:07;;;;;;;4.82;1.38;;;14.50;99.90;;;;;;5004836;28;20037;-72
2024/03/14 09:46:35;;;;;;;6.10;1.67;;;14.50;99.90;;;;;;4978854;28;20038;-73
2024/03/14 09:49:03;;;;;;;2.30;1.27;;;14.60;99.90;;;;;;5001312;28;20049;-73
2024/03/14 09:51:30;;;;;;;3.47;1.42;;;14.60;99.90;;;;;;5001513;28;20037;-71
2024/03/14 09:53:56;;;;;;;4.18;1.88;;;14.70;99.90;;;;;;4999826;28;20097;-72
2024/03/14 09:56:22;;;;;;;2.47;1.30;;;14.80;99.90;;;;;;4989729;28;20491;-72
2024/03/14 09:58:48;;;;;;;3.13;1.38;;;14.80;99.90;;;;;;5006620;28;20041;-72
2024/03/14 10:01:16;;;;;;;3.03;1.15;;;14.90;99.90;;;;;;4993142;28;20041;-72
2024/03/14 10:03:42;;;;;;;2.05;1.25;;;14.90;99.90;;;;;;4992747;28;20100;-72
2024/03/14 10:06:18;;;;;;;3.65;1.48;;;14.90;99.90;;;;;;5007263;28;20455;-73
2024/03/14 10:08:53;;;;;;;3.17;1.10;;;14.90;99.90;;;;;;5004695;28;20034;-72
2024/03/14 10:11:20;;;;;;;4.18;1.25;;;14.90;99.90;;;;;;4988641;28;20047;-72
2024/03/14 10:13:47;;;;;;;4.28;1.20;;;14.90;99.90;;;;;;5006011;28;20069;-73
2024/03/14 10:16:14;;;;;;;3.38;1.40;;;14.90;99.90;;;;;;4986955;28;20133;-73
2024/03/14 10:18:41;;;;;;;1.92;1.30;;;15.00;99.90;;;;;;4988000;28;20034;-74
2024/03/14 10:21:07;;;;;;;2.33;1.17;;;15.10;99.90;;;;;;5007491;28;20065;-73
2024/03/14 10:23:35;;;;;;;3.47;1.60;;;15.20;99.90;;;;;;4993152;28;20076;-72
2024/03/14 10:26:01;;;;;;;3.03;1.38;;;15.20;99.90;;;;;;4986262;28;20046;-73
2024/03/14 10:28:28;;;;;;;2.05;1.17;;;15.30;99.90;;;;;;5005281;28;20037;-74
2024/03/14 10:31:05;;;;;;;2.85;1.52;;;15.20;99.90;;;;;;5009158;28;20025;-71
2024/03/14 10:33:32;;;;;;;2.65;1.30;;;15.20;99.90;;;;;;5005301;28;20121;-72
2024/03/14 10:35:59;;;;;;;2.08;1.33;;;15.30;99.90;;;;;;4983937;28;20372;-72
2024/03/14 10:38:33;;;;;;;3.47;1.50;;;15.30;99.90;;;;;;5006227;28;20125;-71
2024/03/14 10:41:02;;;;;;;2.65;1.17;;;15.40;99.90;;;;;;5010783;28;20045;-73
2024/03/14 10:43:36;;;;;;;1.85;1.20;;;15.40;99.90;;;;;;5010815;28;20530;-71
2024/03/14 10:46:04;;;;;;;2.25;0.98;;;15.30;99.90;;;;;;5006319;28;20038;-72
2024/03/14 10:48:29;;;;;;;5.57;1.50;;;15.30;99.90;;;;;;5012900;28;20029;-73
2024/03/14 10:50:57;;;;;;;2.47;1.30;;;15.30;99.90;;;;;;5007931;28;20706;-71
2024/03/14 10:53:24;;;;;;;2.95;1.65;;;15.30;99.90;;;;;;5008153;28;20125;-73
2024/03/14 10:55:52;;;;;;;4.20;0.95;;;15.40;99.90;;;;;;5006773;28;20147;-74
2024/03/14 10:58:19;;;;;;;2.05;1.17;;;15.40;99.90;;;;;;4989943;28;20033;-72
2024/03/14 11:00:47;;;;;;;4.70;1.35;;;15.50;99.90;;;;;;4990236;28;20776;-73
2024/03/14 11:03:17;;;;;;;1.85;1.10;;;15.60;99.90;;;;;;5007422;28;20057;-72
2024/03/14 11:05:51;;;;;;;2.78;1.38;;;15.60;99.90;;;;;;5006566;28;20038;-72
2024/03/14 11:08:19;;;;;;;4.18;1.45;;;15.70;99.90;;;;;;4992096;28;20042;-73
2024/03/14 11:10:48;;;;;;;3.53;1.73;;;15.60;99.90;;;;;;5006927;28;20030;-73
2024/03/14 11:13:25;;;;;;;4.45;1.55;;;15.60;99.90;;;;;;5009249;28;20029;-72
2024/03/14 11:15:54;;;;;;;3.00;0.90;;;15.60;99.90;;;;;;4988397;28;20041;-72
2024/03/14 11:18:24;;;;;;;3.00;1.48;;;15.60;99.90;;;;;;5006219;28;20045;-75
2024/03/14 11:20:55;;;;;;;1.92;1.30;;;15.60;99.90;;;;;;4992809;28;20079;-71
2024/03/14 11:23:26;;;;;;;1.63;1.00;;;15.60;99.90;;;;;;5000927;28;20049;-73
2024/03/14 11:25:56;;;;;;;6.25;1.08;;;15.70;99.90;;;;;;4998918;28;20029;-71
2024/03/14 11:28:24;;;;;;;2.22;0.90;;;15.70;99.90;;;;;;4989852;28;20144;-71
2024/03/14 11:31:00;;;;;;;2.38;1.00;;;15.70;99.90;;;;;;4995710;28;20037;-73
2024/03/14 11:33:29;;;;;;;1.98;1.10;;;15.80;99.90;;;;;;5004396;28;20041;-73
2024/03/14 11:35:56;;;;;;;2.88;1.30;;;15.80;99.90;;;;;;5001289;28;20041;-72
2024/03/14 11:38:23;;;;;;;4.47;1.15;;;15.80;99.90;;;;;;5004054;28;20084;-73
2024/03/14 11:40:52;;;;;;;3.90;1.30;;;15.90;99.90;;;;;;5005435;28;20551;-72
2024/03/14 11:43:21;;;;;;;2.28;0.77;;;15.80;99.90;;;;;;5009270;28;20057;-72
2024/03/14 11:45:49;;;;;;;2.80;0.98;;;15.90;99.90;;;;;;4985872;28;20034;-72
2024/03/14 11:48:15;;;;;;;3.22;1.40;;;15.90;99.90;;;;;;5006790;28;20034;-73
2024/03/14 11:50:42;;;;;;;2.25;1.50;;;15.90;99.90;;;;;;4987748;28;20115;-75
2024/03/14 11:53:11;;;;;;;2.53;0.82;;;15.90;99.90;;;;;;4980526;28;207720;-74
2024/03/14 11:55:38;;;;;;;4.32;1.15;;;16.00;99.90;;;;;;4966953;28;20117;-74
2024/03/14 11:58:13;;;;;;;2.28;1.50;;;16.00;99.90;;;;;;4987483;28;20061;-72
2024/03/14 12:00:38;;;;;;;3.17;1.00;;;16.10;99.90;;;;;;5007980;28;20049;-73
2024/03/14 12:03:05;;;;;;;4.03;0.90;;;16.10;99.90;;;;;;4982616;28;20056;-71
2024/03/14 12:05:34;;;;;;;3.40;1.27;;;16.20;99.90;;;;;;5004816;28;20045;-71
2024/03/14 12:08:03;;;;;;;2.22;0.90;;;16.10;99.90;;;;;;4986695;28;20078;-72
2024/03/14 12:10:29;;;;;;;3.45;1.05;;;16.10;99.90;;;;;;4990397;28;20326;-72
2024/03/14 12:12:57;;;;;;;1.73;0.73;;;16.10;99.90;;;;;;5001237;28;20499;-69
2024/03/14 12:15:23;;;;;;;2.38;0.77;;;16.10;99.90;;;;;;5010499;28;20036;-73
2024/03/14 12:17:55;;;;;;;4.60;1.40;;;16.10;99.90;;;;;;5005099;28;20128;-73
2024/03/14 12:20:23;;;;;;;1.60;0.98;;;16.10;99.90;;;;;;5005628;28;20033;-72
2024/03/14 12:22:51;;;;;;;4.00;1.00;;;16.10;99.90;;;;;;4988765;28;20104;-72
2024/03/14 12:25:17;;;;;;;4.70;1.00;;;16.10;99.90;;;;;;5007283;28;20124;-74
2024/03/14 12:27:43;;;;;;;5.13;1.60;;;16.20;99.90;;;;;;5005782;28;20088;-74
2024/03/14 12:30:10;;;;;;;1.88;1.00;;;16.20;99.90;;;;;;5006404;28;20049;-72
2024/03/14 12:32:43;;;;;;;6.15;1.92;;;16.20;99.90;;;;;;5009883;28;20026;-72
2024/03/14 12:35:10;;;;;;;4.40;1.55;;;16.20;99.90;;;;;;4988380;28;20038;-73
2024/03/14 12:37:36;;;;;;;5.30;1.73;;;16.40;99.90;;;;;;4988428;28;20084;-74
2024/03/14 12:40:11;;;;;;;5.07;2.40;;;16.50;99.90;;;;;;5007769;28;20048;-72
2024/03/14 12:42:37;;;;;;;8.68;3.78;;;16.60;99.90;;;;;;5005311;28;20029;-73
2024/03/14 12:45:04;;;;;;;5.93;2.90;;;16.50;99.90;;;;;;5005552;28;20038;-72
2024/03/14 12:47:31;;;;;;;4.47;2.30;;;16.50;99.90;;;;;;4989897;28;20156;-71
2024/03/14 12:49:57;;;;;;;8.75;3.35;;;16.50;99.90;;;;;;4988848;28;20080;-71
2024/03/14 12:52:23;;;;;;;4.60;2.00;;;16.50;99.90;;;;;;5006697;28;20431;-72
2024/03/14 12:54:49;;;;;;;2.28;1.13;;;16.60;99.90;;;;;;5003016;28;20041;-72
2024/03/14 12:57:15;;;;;;;1.45;0.65;;;16.70;99.90;;;;;;4988914;28;20038;-71